Time;durP1;ratioP1;P1;durP2;ratioP2;P2;SDS_P1;SDS_P2;PMS_P1;PMS_P2;Temp;Humidity;BMP_temperature;BMP_pressure;BME280_temperature;BME280_humidity;BME280_pressure;Samples;Min_cycle;Max_cycle;Signal;HPM_P1;HPM_P2
2023/03/01 00:01:04;;;;;;;5.38;4.00;;;5.10;75.30;;;;;;5056036;28;20026;-82
2023/03/01 00:03:31;;;;;;;4.75;3.50;;;5.10;75.30;;;;;;5057385;28;20507;-83
2023/03/01 00:05:57;;;;;;;5.50;3.83;;;5.10;75.30;;;;;;5033885;28;20071;-83
2023/03/01 00:08:23;;;;;;;4.55;3.55;;;5.10;75.30;;;;;;5056250;28;20080;-83
2023/03/01 00:10:49;;;;;;;4.85;3.60;;;5.00;75.30;;;;;;5035508;28;20037;-83
2023/03/01 00:13:15;;;;;;;5.03;3.90;;;5.00;75.30;;;;;;5054680;28;20024;-83
2023/03/01 00:15:41;;;;;;;5.07;3.70;;;5.00;75.40;;;;;;5046369;28;20025;-83
2023/03/01 00:18:07;;;;;;;4.40;3.50;;;5.00;75.40;;;;;;5045796;28;20035;-84
2023/03/01 00:20:34;;;;;;;5.03;3.78;;;4.90;75.30;;;;;;5069915;28;20028;-85
2023/03/01 00:23:00;;;;;;;4.43;3.50;;;4.90;75.40;;;;;;5024987;28;20029;-82
2023/03/01 00:25:25;;;;;;;5.57;4.00;;;4.90;75.40;;;;;;4998320;28;20394;-83
2023/03/01 00:27:51;;;;;;;4.68;3.80;;;4.90;75.40;;;;;;5024103;28;20044;-83
2023/03/01 00:30:17;;;;;;;4.47;3.60;;;4.80;75.30;;;;;;5040827;28;21341;-84
2023/03/01 00:32:42;;;;;;;4.30;3.28;;;4.80;75.30;;;;;;5032776;28;20481;-84
2023/03/01 00:35:08;;;;;;;4.72;3.85;;;4.80;75.30;;;;;;5039213;28;20036;-83
2023/03/01 00:37:34;;;;;;;5.07;3.90;;;4.80;75.40;;;;;;5034685;28;20391;-82
2023/03/01 00:40:00;;;;;;;4.95;3.80;;;4.80;75.40;;;;;;5065371;28;20469;-83
2023/03/01 00:42:25;;;;;;;3.85;2.97;;;4.70;75.30;;;;;;5049823;28;20099;-83
2023/03/01 00:44:51;;;;;;;5.07;3.67;;;4.70;75.30;;;;;;5054143;28;20028;-83
2023/03/01 00:47:17;;;;;;;4.05;3.30;;;4.70;75.40;;;;;;5006319;28;20407;-83
2023/03/01 00:49:43;;;;;;;4.38;3.35;;;4.70;75.40;;;;;;5045445;28;20078;-84
2023/03/01 00:52:08;;;;;;;4.88;3.53;;;4.70;75.40;;;;;;5042462;28;20032;-83
2023/03/01 00:54:34;;;;;;;4.75;3.20;;;4.60;75.40;;;;;;5039026;28;20036;-84
2023/03/01 00:57:00;;;;;;;3.90;3.00;;;4.60;75.30;;;;;;5036666;28;20032;-84
2023/03/01 00:59:25;;;;;;;4.85;3.33;;;4.60;75.40;;;;;;5021703;28;20063;-84
2023/03/01 01:01:51;;;;;;;4.70;3.30;;;4.60;75.40;;;;;;5049980;28;20057;-84
2023/03/01 01:04:17;;;;;;;4.80;3.50;;;4.60;75.40;;;;;;5041315;28;20511;-85
2023/03/01 01:06:45;;;;;;;5.00;3.47;;;4.50;75.30;;;;;;5009969;28;20045;-85
2023/03/01 01:09:16;;;;;;;4.35;3.72;;;4.50;75.30;;;;;;5066478;28;20028;-83
2023/03/01 01:11:49;;;;;;;4.35;3.15;;;4.50;75.30;;;;;;5045403;28;20032;-84
2023/03/01 01:14:16;;;;;;;5.22;4.10;;;4.50;75.30;;;;;;5054592;28;20519;-85
2023/03/01 01:16:42;;;;;;;4.13;3.53;;;4.40;75.30;;;;;;5043240;28;20021;-83
2023/03/01 01:19:09;;;;;;;4.25;3.00;;;4.40;75.30;;;;;;5044794;28;20572;-83
2023/03/01 01:21:34;;;;;;;3.78;3.00;;;4.40;75.30;;;;;;5037561;28;20129;-83
2023/03/01 01:24:02;;;;;;;4.35;3.10;;;4.40;75.40;;;;;;5038844;28;20028;-83
2023/03/01 01:26:31;;;;;;;4.80;3.40;;;4.40;75.40;;;;;;5045329;28;20027;-84
2023/03/01 01:28:57;;;;;;;4.63;3.17;;;4.30;75.30;;;;;;5054633;28;20111;-84
2023/03/01 01:31:24;;;;;;;4.15;3.05;;;4.30;75.40;;;;;;5039469;28;20020;-83
2023/03/01 01:33:51;;;;;;;4.40;3.28;;;4.30;75.40;;;;;;5056707;28;20060;-84
2023/03/01 01:36:17;;;;;;;3.95;2.90;;;4.30;75.40;;;;;;5063804;28;20033;-86
2023/03/01 01:38:43;;;;;;;3.60;2.90;;;4.20;75.30;;;;;;5053522;28;20035;-84
2023/03/01 01:41:11;;;;;;;4.35;3.20;;;4.20;75.30;;;;;;5045068;28;20428;-83
2023/03/01 01:43:40;;;;;;;4.40;3.28;;;4.20;75.30;;;;;;5051050;28;20024;-83
2023/03/01 01:46:28;;;;;;;4.20;3.30;;;4.20;75.30;;;;;;5055910;28;20042;-84
2023/03/01 01:49:04;;;;;;;3.80;3.15;;;4.20;75.40;;;;;;5034247;28;20032;-83
2023/03/01 01:51:43;;;;;;;4.00;3.20;;;4.10;75.30;;;;;;5059252;28;20107;-83
2023/03/01 01:54:15;;;;;;;3.90;3.00;;;4.10;75.40;;;;;;5027310;28;20108;-84
2023/03/01 01:56:46;;;;;;;3.45;2.90;;;4.10;75.40;;;;;;5060295;28;20035;-84
2023/03/01 01:59:12;;;;;;;4.38;3.30;;;4.10;75.40;;;;;;5032001;28;20032;-83
2023/03/01 02:01:38;;;;;;;4.60;3.50;;;4.00;75.40;;;;;;5051983;28;20031;-83
2023/03/01 02:04:06;;;;;;;4.03;3.30;;;4.00;75.50;;;;;;5047215;28;20452;-83
2023/03/01 02:06:43;;;;;;;4.43;3.33;;;4.00;75.40;;;;;;5045478;28;20020;-84
2023/03/01 02:09:14;;;;;;;4.25;3.33;;;4.00;75.40;;;;;;5041561;28;20043;-85
2023/03/01 02:11:41;;;;;;;4.32;3.17;;;4.00;75.50;;;;;;5051289;28;20032;-84
2023/03/01 02:14:06;;;;;;;4.25;3.38;;;3.90;75.40;;;;;;5039883;28;20021;-83
2023/03/01 02:16:32;;;;;;;4.88;3.78;;;3.90;75.40;;;;;;5033447;28;20044;-83
2023/03/01 02:18:59;;;;;;;4.43;3.55;;;3.90;75.40;;;;;;5045631;28;20396;-82
2023/03/01 02:22:00;;;;;;;5.55;3.78;;;3.90;75.50;;;;;;5037609;28;20151;-84
2023/03/01 02:24:40;;;;;;;5.15;3.70;;;3.90;75.50;;;;;;5048277;28;20473;-83
2023/03/01 02:27:06;;;;;;;4.65;3.58;;;3.80;75.40;;;;;;5057240;28;20067;-84
2023/03/01 02:29:33;;;;;;;5.90;3.58;;;3.80;75.50;;;;;;5036635;28;20530;-84
2023/03/01 02:32:02;;;;;;;4.88;3.38;;;3.80;75.50;;;;;;5033647;28;20040;-83
2023/03/01 02:34:30;;;;;;;5.15;3.65;;;3.80;75.50;;;;;;5054650;28;20032;-83
2023/03/01 02:37:04;;;;;;;4.65;3.47;;;3.70;75.50;;;;;;5036519;28;20136;-83
2023/03/01 02:39:44;;;;;;;5.50;4.07;;;3.70;75.50;;;;;;5053330;28;20021;-83
2023/03/01 02:42:12;;;;;;;5.20;3.92;;;3.70;75.50;;;;;;5040265;28;20027;-83
2023/03/01 02:44:38;;;;;;;5.13;4.05;;;3.70;75.50;;;;;;5036197;28;20036;-84
2023/03/01 02:47:05;;;;;;;4.85;3.92;;;3.70;75.60;;;;;;5077459;28;20039;-85
2023/03/01 02:49:34;;;;;;;5.20;4.22;;;3.60;75.50;;;;;;5054209;28;20100;-84
2023/03/01 02:52:38;;;;;;;5.05;4.22;;;3.70;75.50;;;;;;5040777;28;20038;-83
2023/03/01 02:55:10;;;;;;;4.47;3.70;;;3.60;75.50;;;;;;5078491;28;20891;-84
2023/03/01 02:57:39;;;;;;;4.70;3.50;;;3.60;75.50;;;;;;5066589;28;20040;-83
2023/03/01 03:00:10;;;;;;;4.82;3.55;;;3.60;75.50;;;;;;5044537;28;20489;-84
2023/03/01 03:02:37;;;;;;;4.90;3.92;;;3.60;75.60;;;;;;5051284;28;20036;-83
2023/03/01 03:05:13;;;;;;;5.03;3.97;;;3.50;75.50;;;;;;5022942;28;20028;-83
2023/03/01 03:07:42;;;;;;;5.22;4.03;;;3.50;76.10;;;;;;5030078;28;20053;-84
2023/03/01 03:10:12;;;;;;;4.53;3.58;;;3.50;75.50;;;;;;5059490;28;20120;-84
2023/03/01 03:12:39;;;;;;;5.30;3.70;;;3.50;75.50;;;;;;5048621;28;20029;-84
2023/03/01 03:15:08;;;;;;;5.50;3.95;;;3.50;75.50;;;;;;5033494;28;20019;-84
2023/03/01 03:17:38;;;;;;;5.72;4.28;;;3.50;75.50;;;;;;5043888;28;20041;-83
2023/03/01 03:20:11;;;;;;;5.30;4.00;;;3.50;75.50;;;;;;5047135;28;20466;-84
2023/03/01 03:22:39;;;;;;;5.07;4.22;;;3.40;75.50;;;;;;5034763;28;20056;-83
2023/03/01 03:25:11;;;;;;;5.45;4.20;;;3.40;75.50;;;;;;5050256;28;20436;-83
2023/03/01 03:27:39;;;;;;;5.43;4.13;;;3.40;75.50;;;;;;5027792;28;20401;-83
2023/03/01 03:30:08;;;;;;;5.93;3.95;;;3.40;75.50;;;;;;5047021;28;20473;-83
2023/03/01 03:32:36;;;;;;;5.43;4.53;;;3.30;75.40;;;;;;5024657;28;20052;-84
2023/03/01 03:35:09;;;;;;;5.00;4.00;;;3.30;75.50;;;;;;5050452;28;20026;-83
2023/03/01 03:40:27;;;;;;;5.53;4.07;;;3.30;75.50;;;;;;5045157;28;20057;-84
2023/03/01 03:42:52;;;;;;;5.18;4.10;;;3.30;75.50;;;;;;5046043;28;20108;-83
2023/03/01 03:45:19;;;;;;;5.13;3.78;;;3.20;75.50;;;;;;5046861;28;20172;-82
2023/03/01 03:47:45;;;;;;;5.15;3.75;;;3.20;75.50;;;;;;5038591;28;20495;-84
2023/03/01 03:50:13;;;;;;;4.85;4.15;;;3.20;75.50;;;;;;5037539;28;20509;-84
2023/03/01 03:52:39;;;;;;;5.40;4.20;;;3.20;75.50;;;;;;5045388;28;20029;-85
2023/03/01 03:55:10;;;;;;;4.80;3.83;;;3.20;75.60;;;;;;5025747;28;20031;-83
2023/03/01 03:57:36;;;;;;;4.80;3.70;;;3.20;75.50;;;;;;5049256;28;20544;-83
2023/03/01 04:00:12;;;;;;;5.70;4.45;;;3.20;75.50;;;;;;5035114;28;20033;-82
2023/03/01 04:02:39;;;;;;;5.90;4.07;;;3.10;75.50;;;;;;5048260;28;20087;-84
2023/03/01 04:05:06;;;;;;;5.30;4.15;;;3.10;76.10;;;;;;5036847;28;20029;-83
2023/03/01 04:07:31;;;;;;;5.78;3.97;;;3.10;75.50;;;;;;5023168;28;20090;-83
2023/03/01 04:09:57;;;;;;;5.80;4.57;;;3.10;75.50;;;;;;5067009;28;20453;-83
2023/03/01 04:12:23;;;;;;;4.72;4.03;;;3.10;75.50;;;;;;5023962;28;20480;-82
2023/03/01 04:14:49;;;;;;;5.32;4.22;;;3.10;75.50;;;;;;5023533;28;20496;-83
2023/03/01 04:17:14;;;;;;;5.45;4.15;;;3.10;75.50;;;;;;5053247;28;20033;-85
2023/03/01 04:19:43;;;;;;;4.93;3.90;;;3.00;75.40;;;;;;5057603;28;20110;-84
2023/03/01 04:22:11;;;;;;;5.10;4.25;;;3.00;75.50;;;;;;5049265;28;20032;-85
2023/03/01 04:24:36;;;;;;;5.82;4.50;;;3.00;75.40;;;;;;5063967;28;20152;-85
2023/03/01 04:27:03;;;;;;;5.28;4.15;;;3.00;75.40;;;;;;5036425;28;20131;-83
2023/03/01 04:29:28;;;;;;;5.00;3.78;;;3.00;75.40;;;;;;5052741;28;20117;-83
2023/03/01 04:31:54;;;;;;;4.90;3.80;;;3.00;75.40;;;;;;5040706;28;20569;-84
2023/03/01 04:34:20;;;;;;;4.88;3.78;;;3.00;75.40;;;;;;5046354;28;20044;-84
2023/03/01 04:36:46;;;;;;;5.53;3.78;;;3.00;75.40;;;;;;5045098;28;20464;-84
2023/03/01 04:39:12;;;;;;;4.85;3.78;;;3.00;76.00;;;;;;5031224;28;20457;-84
2023/03/01 04:41:38;;;;;;;5.25;4.03;;;3.00;75.40;;;;;;5045220;28;20064;-81
2023/03/01 04:44:06;;;;;;;5.68;4.55;;;3.00;75.40;;;;;;5049456;28;20465;-83
2023/03/01 04:46:31;;;;;;;4.75;3.85;;;3.00;75.30;;;;;;5063907;28;20032;-83
2023/03/01 04:48:57;;;;;;;5.25;3.90;;;3.00;75.30;;;;;;5057714;28;20038;-84
2023/03/01 04:51:23;;;;;;;5.10;3.95;;;2.90;75.30;;;;;;5042813;28;20113;-82
2023/03/01 04:53:49;;;;;;;5.25;3.92;;;2.90;75.30;;;;;;5049263;28;20037;-83
2023/03/01 04:56:17;;;;;;;4.85;3.92;;;2.90;75.30;;;;;;5040839;28;20076;-83
2023/03/01 04:58:44;;;;;;;5.07;3.80;;;2.90;75.30;;;;;;5042575;28;20534;-82
2023/03/01 05:01:15;;;;;;;5.53;4.05;;;2.90;75.30;;;;;;5043426;28;20078;-84
2023/03/01 05:03:49;;;;;;;5.40;4.25;;;2.90;75.30;;;;;;5036222;28;20028;-83
2023/03/01 05:06:15;;;;;;;5.30;3.92;;;2.90;75.30;;;;;;5045322;28;20037;-83
2023/03/01 05:08:42;;;;;;;5.40;4.40;;;2.90;75.30;;;;;;5050000;28;20131;-83
2023/03/01 05:11:10;;;;;;;4.75;3.95;;;2.90;75.30;;;;;;5051375;28;20025;-84
2023/03/01 05:13:38;;;;;;;4.50;3.60;;;2.90;75.30;;;;;;5054240;28;20473;-83
2023/03/01 05:16:05;;;;;;;4.68;3.58;;;2.90;75.30;;;;;;5031237;28;20032;-83
2023/03/01 05:18:32;;;;;;;5.30;4.07;;;2.80;75.20;;;;;;5040162;28;20038;-84
2023/03/01 05:21:03;;;;;;;5.20;4.30;;;2.80;75.20;;;;;;5050908;28;20054;-83
2023/03/01 05:23:32;;;;;;;4.63;3.45;;;2.80;75.20;;;;;;5060657;28;20032;-82
2023/03/01 05:25:59;;;;;;;5.05;4.20;;;2.80;75.20;;;;;;5061865;28;20107;-85
2023/03/01 05:28:25;;;;;;;7.53;3.95;;;2.80;75.10;;;;;;5040489;28;20035;-84
2023/03/01 05:30:51;;;;;;;5.90;4.35;;;2.80;75.20;;;;;;5036117;28;20096;-83
2023/03/01 05:33:18;;;;;;;4.85;3.80;;;2.80;75.20;;;;;;5040731;28;20116;-84
2023/03/01 05:35:45;;;;;;;5.47;3.75;;;2.80;75.20;;;;;;5022503;28;20017;-86
2023/03/01 05:38:13;;;;;;;4.68;4.00;;;2.70;75.10;;;;;;5049471;28;20028;-84
2023/03/01 05:40:41;;;;;;;5.03;4.10;;;2.80;75.30;;;;;;5054796;28;20017;-84
2023/03/01 05:43:07;;;;;;;4.88;4.13;;;2.70;75.20;;;;;;5039233;28;20032;-82
2023/03/01 05:45:36;;;;;;;4.85;4.00;;;2.80;75.30;;;;;;5038232;28;20016;-82
2023/03/01 05:48:02;;;;;;;4.80;3.58;;;2.70;75.20;;;;;;5048621;28;20044;-83
2023/03/01 05:50:32;;;;;;;4.95;3.45;;;2.70;75.20;;;;;;5051997;28;20502;-86
2023/03/01 05:53:00;;;;;;;5.68;4.07;;;2.70;75.20;;;;;;5032683;28;20070;-84
2023/03/01 05:55:26;;;;;;;4.88;3.90;;;2.70;75.20;;;;;;5051583;28;20028;-85
2023/03/01 05:57:52;;;;;;;5.20;4.13;;;2.60;75.20;;;;;;5051961;28;20093;-87
2023/03/01 06:00:21;;;;;;;5.25;3.88;;;2.70;75.30;;;;;;5055585;28;20037;-86
2023/03/01 06:02:48;;;;;;;5.75;4.40;;;2.70;75.30;;;;;;5066882;28;20107;-85
2023/03/01 06:05:14;;;;;;;4.65;3.58;;;2.60;75.20;;;;;;5049374;28;20029;-85
2023/03/01 06:07:41;;;;;;;4.90;3.80;;;2.60;75.20;;;;;;5027514;28;20063;-85
2023/03/01 06:10:08;;;;;;;4.97;4.00;;;2.60;75.10;;;;;;5030925;28;20036;-86
2023/03/01 06:12:36;;;;;;;4.70;3.88;;;2.60;75.20;;;;;;5045153;28;20368;-86
2023/03/01 06:15:04;;;;;;;6.05;4.20;;;2.60;75.20;;;;;;5054973;28;20457;-82
2023/03/01 06:17:32;;;;;;;4.70;3.92;;;2.60;75.20;;;;;;5044780;28;20040;-85
2023/03/01 06:20:00;;;;;;;5.28;4.00;;;2.60;75.80;;;;;;5038559;28;20469;-86
2023/03/01 06:22:27;;;;;;;5.47;3.92;;;2.60;75.20;;;;;;5045071;28;20143;-83
2023/03/01 06:24:52;;;;;;;4.85;3.65;;;2.50;75.10;;;;;;5056650;28;20096;-84
2023/03/01 06:27:19;;;;;;;4.07;3.50;;;2.50;75.10;;;;;;5041633;28;20162;-85
2023/03/01 06:29:44;;;;;;;5.78;3.90;;;2.50;75.20;;;;;;5027459;28;20025;-84
2023/03/01 06:32:10;;;;;;;4.10;3.55;;;2.50;75.20;;;;;;5043797;28;20032;-85
2023/03/01 06:34:36;;;;;;;4.57;3.75;;;2.50;75.20;;;;;;5036473;28;20056;-84
2023/03/01 06:37:04;;;;;;;4.55;3.63;;;2.50;75.20;;;;;;5038245;28;20082;-84
2023/03/01 06:39:31;;;;;;;6.38;4.43;;;2.50;75.20;;;;;;5045473;28;20016;-84
2023/03/01 06:41:57;;;;;;;5.97;3.90;;;2.50;75.10;;;;;;5047441;28;20483;-84
2023/03/01 06:44:23;;;;;;;4.85;3.58;;;2.50;75.10;;;;;;5015432;28;20111;-84
2023/03/01 06:46:48;;;;;;;5.57;4.32;;;2.50;75.10;;;;;;5028969;28;20028;-84
2023/03/01 06:49:16;;;;;;;5.45;4.07;;;2.50;75.10;;;;;;5015866;28;20515;-85
2023/03/01 06:51:41;;;;;;;5.13;3.53;;;2.50;75.10;;;;;;5019837;28;20056;-84
2023/03/01 06:54:07;;;;;;;5.63;4.03;;;2.50;75.10;;;;;;5004379;28;20123;-84
2023/03/01 06:56:33;;;;;;;5.22;3.97;;;2.50;75.10;;;;;;5034115;28;20476;-84
2023/03/01 06:58:59;;;;;;;4.85;3.65;;;2.40;75.00;;;;;;5049873;28;20021;-84
2023/03/01 07:01:25;;;;;;;5.95;3.83;;;2.50;75.10;;;;;;5027899;28;20531;-85
2023/03/01 07:03:51;;;;;;;5.57;4.35;;;2.40;75.10;;;;;;5030438;28;20115;-84
2023/03/01 07:06:17;;;;;;;4.95;3.72;;;2.40;75.10;;;;;;5031589;28;20050;-84
2023/03/01 07:08:43;;;;;;;5.53;3.92;;;2.40;75.10;;;;;;5027082;28;20056;-84
2023/03/01 07:11:09;;;;;;;4.93;3.55;;;2.40;75.10;;;;;;5013566;28;20029;-84
2023/03/01 07:13:35;;;;;;;5.80;4.20;;;2.40;75.10;;;;;;5033666;28;20435;-84
2023/03/01 07:16:01;;;;;;;4.68;3.70;;;2.40;75.20;;;;;;5057541;28;20040;-84
2023/03/01 07:18:26;;;;;;;4.88;4.15;;;2.40;75.10;;;;;;5052565;28;20373;-85
2023/03/01 07:20:52;;;;;;;5.25;3.92;;;2.40;75.10;;;;;;5046613;28;20031;-84
2023/03/01 07:23:18;;;;;;;5.55;4.47;;;2.40;75.10;;;;;;5070484;28;20028;-88
2023/03/01 07:25:44;;;;;;;5.25;4.05;;;2.40;75.10;;;;;;5049403;28;20082;-82
2023/03/01 07:28:10;;;;;;;5.35;4.18;;;2.40;75.10;;;;;;5032470;28;20029;-84
2023/03/01 07:30:36;;;;;;;4.72;3.80;;;2.40;75.10;;;;;;5038531;28;20059;-82
2023/03/01 07:33:01;;;;;;;4.63;3.95;;;2.40;75.10;;;;;;5050976;28;20116;-83
2023/03/01 07:35:28;;;;;;;5.88;4.20;;;2.40;75.10;;;;;;5041452;28;20453;-83
2023/03/01 07:37:53;;;;;;;5.80;3.83;;;2.40;75.10;;;;;;5034613;28;20503;-84
2023/03/01 07:40:19;;;;;;;5.28;3.83;;;2.40;75.10;;;;;;5036966;28;20032;-87
2023/03/01 07:42:45;;;;;;;5.57;4.43;;;2.40;75.10;;;;;;5044515;28;20029;-85
2023/03/01 07:45:13;;;;;;;5.00;3.90;;;2.40;75.10;;;;;;5055650;28;20072;-83
2023/03/01 07:47:39;;;;;;;5.75;4.18;;;2.30;75.10;;;;;;5033211;28;20059;-84
2023/03/01 07:50:05;;;;;;;4.78;3.58;;;2.40;75.20;;;;;;5041784;28;20572;-85
2023/03/01 07:52:31;;;;;;;4.57;3.72;;;2.40;75.20;;;;;;5013499;28;20465;-84
2023/03/01 07:54:56;;;;;;;4.55;3.83;;;2.40;75.10;;;;;;5044699;28;20032;-85
2023/03/01 07:57:23;;;;;;;4.85;3.60;;;2.40;75.10;;;;;;5035783;28;20134;-85
2023/03/01 07:59:48;;;;;;;5.60;4.32;;;2.40;75.80;;;;;;5060390;28;20066;-86
2023/03/01 08:02:15;;;;;;;5.43;3.88;;;2.40;75.20;;;;;;5048484;28;20416;-85
2023/03/01 08:04:42;;;;;;;4.47;3.60;;;2.40;75.20;;;;;;5035455;28;20493;-84
2023/03/01 08:07:07;;;;;;;5.22;3.83;;;2.40;75.10;;;;;;5042336;28;20048;-85
2023/03/01 08:09:37;;;;;;;5.45;4.18;;;2.40;75.10;;;;;;5032142;28;20441;-85
2023/03/01 08:12:04;;;;;;;4.40;3.50;;;2.50;75.20;;;;;;5047907;28;20032;-83
2023/03/01 08:14:31;;;;;;;5.30;4.22;;;2.40;75.10;;;;;;5049555;28;20036;-85
2023/03/01 08:16:57;;;;;;;5.30;4.00;;;2.50;75.20;;;;;;5057178;28;20065;-85
2023/03/01 08:19:23;;;;;;;5.18;3.90;;;2.40;75.10;;;;;;5016540;28;20466;-84
2023/03/01 08:21:49;;;;;;;5.22;4.00;;;2.50;75.20;;;;;;5045376;28;20562;-86
2023/03/01 08:24:14;;;;;;;4.97;4.20;;;2.50;75.20;;;;;;5063789;28;20024;-89
2023/03/01 08:26:40;;;;;;;6.47;4.20;;;2.50;75.20;;;;;;5050771;28;20394;-88
2023/03/01 08:29:06;;;;;;;5.15;3.85;;;2.50;75.20;;;;;;5048740;28;20520;-83
2023/03/01 08:31:35;;;;;;;5.90;4.35;;;2.50;75.10;;;;;;5055965;28;20027;-85
2023/03/01 08:34:04;;;;;;;5.20;3.97;;;2.60;75.10;;;;;;5050082;28;20033;-84
2023/03/01 08:36:34;;;;;;;5.45;4.07;;;2.50;75.10;;;;;;5044815;28;20632;-84
2023/03/01 08:39:01;;;;;;;5.00;3.90;;;2.60;75.10;;;;;;5045940;28;20029;-87
2023/03/01 08:41:27;;;;;;;5.22;4.05;;;2.60;75.10;;;;;;5038373;28;20020;-86
2023/03/01 08:43:58;;;;;;;5.15;4.18;;;2.60;75.10;;;;;;5036750;28;20029;-86
2023/03/01 08:46:26;;;;;;;5.05;3.95;;;2.60;75.10;;;;;;5043960;28;20037;-86
2023/03/01 08:48:51;;;;;;;5.55;4.32;;;2.60;75.10;;;;;;5038888;28;20040;-85
2023/03/01 08:51:18;;;;;;;4.95;4.13;;;2.60;75.10;;;;;;5038827;28;20030;-87
2023/03/01 08:53:45;;;;;;;5.85;4.28;;;2.70;75.10;;;;;;5040725;28;20021;-86
2023/03/01 08:56:11;;;;;;;4.95;3.95;;;2.70;75.10;;;;;;5040917;28;20443;-87
2023/03/01 08:58:39;;;;;;;6.38;4.50;;;2.70;75.10;;;;;;5004802;28;20016;-86
2023/03/01 09:01:10;;;;;;;6.32;4.43;;;2.70;75.10;;;;;;5020347;28;20105;-86
2023/03/01 09:03:36;;;;;;;5.63;4.28;;;2.70;75.10;;;;;;5042394;28;20064;-86
2023/03/01 09:06:04;;;;;;;5.75;4.45;;;2.70;75.00;;;;;;5054912;28;20113;-85
2023/03/01 09:08:30;;;;;;;5.40;4.10;;;2.80;75.10;;;;;;5037858;28;20044;-86
2023/03/01 09:10:56;;;;;;;5.28;4.45;;;2.80;75.00;;;;;;5050244;28;20041;-87
2023/03/01 09:13:25;;;;;;;6.47;4.85;;;2.80;75.00;;;;;;5038628;28;20321;-86
2023/03/01 09:15:51;;;;;;;6.35;4.28;;;2.90;75.10;;;;;;5046097;28;20078;-86
2023/03/01 09:18:17;;;;;;;5.30;4.07;;;2.90;75.10;;;;;;5053105;28;20060;-86
2023/03/01 09:20:43;;;;;;;5.65;4.28;;;2.90;75.00;;;;;;5030578;28;20034;-87
2023/03/01 09:23:08;;;;;;;5.57;4.40;;;3.00;75.00;;;;;;5034164;28;20025;-87
2023/03/01 09:25:34;;;;;;;5.68;4.25;;;3.00;75.00;;;;;;5057818;28;20039;-85
2023/03/01 09:28:00;;;;;;;5.95;4.45;;;3.00;75.00;;;;;;5040970;28;20115;-86
2023/03/01 09:30:26;;;;;;;5.20;3.83;;;3.00;75.00;;;;;;5040277;28;20014;-86
2023/03/01 09:32:52;;;;;;;5.75;4.53;;;3.10;75.00;;;;;;5057277;28;20385;-85
2023/03/01 09:35:19;;;;;;;5.55;4.05;;;3.20;75.00;;;;;;5017040;28;20052;-86
2023/03/01 09:37:45;;;;;;;5.95;4.10;;;3.20;75.00;;;;;;5039495;28;20091;-86
2023/03/01 09:40:18;;;;;;;5.82;4.25;;;3.20;75.00;;;;;;5051688;28;20021;-86
2023/03/01 09:43:00;;;;;;;6.32;4.57;;;3.30;75.00;;;;;;5041107;28;20025;-86
2023/03/01 09:45:39;;;;;;;6.53;4.25;;;3.30;75.00;;;;;;5057991;28;20020;-87
2023/03/01 09:48:21;;;;;;;5.15;4.13;;;3.40;75.00;;;;;;5038974;28;20120;-87
2023/03/01 09:50:47;;;;;;;5.50;4.35;;;3.40;74.90;;;;;;5055132;28;20360;-86
2023/03/01 09:53:17;;;;;;;5.95;4.78;;;3.50;74.80;;;;;;5048791;28;20032;-86
2023/03/01 09:55:50;;;;;;;5.95;4.40;;;3.50;74.90;;;;;;5055725;28;20077;-86
2023/03/01 09:58:52;;;;;;;5.25;4.28;;;3.60;74.80;;;;;;5055797;28;20025;-86
2023/03/01 10:01:55;;;;;;;5.20;4.35;;;3.70;74.90;;;;;;5054546;28;20025;-86
2023/03/01 10:04:32;;;;;;;4.80;4.03;;;3.70;74.80;;;;;;5045699;28;20031;-86
2023/03/01 10:07:17;;;;;;;6.18;4.45;;;3.80;74.80;;;;;;5049945;28;20465;-86
2023/03/01 10:09:45;;;;;;;6.57;4.75;;;3.80;74.80;;;;;;5054418;28;20036;-86
2023/03/01 10:12:18;;;;;;;5.22;3.97;;;3.90;74.80;;;;;;5031545;28;20088;-85
2023/03/01 10:15:02;;;;;;;5.68;4.40;;;4.00;74.80;;;;;;5054398;28;20107;-87
2023/03/01 10:17:36;;;;;;;6.47;4.72;;;4.00;74.80;;;;;;5061725;28;20123;-87
2023/03/01 10:20:17;;;;;;;5.55;4.47;;;4.10;74.80;;;;;;5056330;28;20041;-87
2023/03/01 10:22:46;;;;;;;6.38;4.30;;;4.20;74.80;;;;;;5041073;28;20116;-87
2023/03/01 10:25:14;;;;;;;6.30;4.88;;;4.20;75.30;;;;;;5037660;28;20029;-88
2023/03/01 10:27:59;;;;;;;6.65;4.72;;;4.30;74.70;;;;;;5039294;28;20039;-85
2023/03/01 10:30:39;;;;;;;5.72;4.60;;;4.40;74.80;;;;;;5052397;28;20080;-86
2023/03/01 10:33:24;;;;;;;5.93;4.38;;;4.40;74.80;;;;;;5038520;28;20538;-86
2023/03/01 10:35:49;;;;;;;6.93;5.00;;;4.50;74.80;;;;;;5049694;28;20028;-85
2023/03/01 10:38:16;;;;;;;6.68;4.68;;;4.60;74.70;;;;;;5005390;28;20043;-86
2023/03/01 10:40:51;;;;;;;6.40;4.85;;;4.70;74.70;;;;;;5052835;28;20103;-86
2023/03/01 10:43:17;;;;;;;;;;;4.70;74.70;;;;;;5052131;28;20044;-87
2023/03/01 10:45:43;;;;;;;6.15;4.57;;;4.80;74.50;;;;;;5041918;28;19905;-85
2023/03/01 10:48:25;;;;;;;6.00;4.68;;;4.90;74.40;;;;;;5007331;28;20065;-86
2023/03/01 10:51:06;;;;;;;6.47;5.05;;;5.00;74.60;;;;;;5049967;28;20033;-86
2023/03/01 10:53:36;;;;;;;6.30;4.90;;;5.00;74.60;;;;;;5038085;28;20382;-86
2023/03/01 10:56:13;;;;;;;6.15;4.60;;;5.10;74.60;;;;;;5035589;28;20242;-86
2023/03/01 10:58:56;;;;;;;6.15;4.80;;;5.20;74.60;;;;;;5028145;28;20021;-86
2023/03/01 11:01:27;;;;;;;6.95;5.53;;;5.30;74.60;;;;;;5048052;28;20025;-87
2023/03/01 11:04:10;;;;;;;7.70;5.25;;;5.40;74.60;;;;;;5049234;28;20026;-86
2023/03/01 11:06:39;;;;;;;6.20;5.03;;;5.50;75.30;;;;;;5051771;28;20032;-87
2023/03/01 11:09:22;;;;;;;6.53;4.80;;;5.50;74.60;;;;;;5025588;28;20092;-86
2023/03/01 11:11:56;;;;;;;6.55;5.15;;;5.60;74.70;;;;;;5046744;28;20036;-86
2023/03/01 11:14:25;;;;;;;7.03;5.05;;;5.70;74.60;;;;;;5043407;28;20037;-86
2023/03/01 11:17:11;;;;;;;7.13;5.28;;;5.70;74.70;;;;;;5032051;28;20021;-86
2023/03/01 11:19:37;;;;;;;6.75;4.85;;;5.80;74.80;;;;;;5045229;28;20112;-86
2023/03/01 11:22:17;;;;;;;5.97;4.57;;;5.90;74.70;;;;;;5041397;28;20017;-85
2023/03/01 11:24:47;;;;;;;7.15;5.05;;;6.00;74.80;;;;;;5043019;28;20484;-86
2023/03/01 11:27:36;;;;;;;6.40;4.65;;;6.00;74.70;;;;;;5044867;28;20063;-86
2023/03/01 11:30:15;;;;;;;6.18;4.40;;;6.10;75.50;;;;;;5055701;28;20108;-86
2023/03/01 11:33:06;;;;;;;6.85;4.90;;;6.10;74.80;;;;;;5054152;28;20025;-85
2023/03/01 11:35:37;;;;;;;6.30;4.93;;;6.20;74.90;;;;;;5027653;28;20037;-86
2023/03/01 11:38:23;;;;;;;7.10;5.05;;;6.20;74.90;;;;;;5058764;28;20025;-87
2023/03/01 11:41:15;;;;;;;6.45;5.18;;;6.30;75.10;;;;;;5036492;28;20030;-86
2023/03/01 11:44:10;;;;;;;6.75;4.93;;;6.40;75.10;;;;;;5045931;28;20034;-86
2023/03/01 11:47:24;;;;;;;6.20;4.75;;;6.40;75.10;;;;;;5043074;28;20029;-86
2023/03/01 11:50:42;;;;;;;6.65;5.15;;;6.40;75.10;;;;;;4992614;28;20125;-86
2023/03/01 11:53:16;;;;;;;6.22;4.45;;;6.50;75.20;;;;;;5011242;28;20051;-85
2023/03/01 11:56:04;;;;;;;6.47;4.78;;;6.60;75.30;;;;;;5050564;28;20029;-87
2023/03/01 11:59:09;;;;;;;5.88;4.30;;;6.60;75.40;;;;;;5044043;28;20171;-87
2023/03/01 12:01:56;;;;;;;6.38;4.80;;;6.70;75.60;;;;;;5056263;28;20047;-86
2023/03/01 12:04:33;;;;;;;6.45;4.65;;;6.70;75.60;;;;;;5053057;28;20024;-86
2023/03/01 12:07:22;;;;;;;5.57;4.47;;;6.80;75.60;;;;;;5047099;28;20055;-85
2023/03/01 12:10:20;;;;;;;6.05;4.68;;;6.80;75.70;;;;;;5047280;28;20294;-85
2023/03/01 12:13:22;;;;;;;6.50;5.03;;;6.90;75.70;;;;;;5056883;28;20027;-86
2023/03/01 12:15:59;;;;;;;6.47;4.63;;;6.90;75.70;;;;;;5070072;28;20513;-86
2023/03/01 12:18:40;;;;;;;6.30;4.85;;;7.00;75.70;;;;;;5030454;28;20484;-86
2023/03/01 12:21:53;;;;;;;5.78;4.55;;;7.00;75.90;;;;;;5055399;28;20040;-86
2023/03/01 12:24:22;;;;;;;6.60;4.88;;;7.10;75.90;;;;;;5071156;28;20020;-88
2023/03/01 12:27:12;;;;;;;6.43;4.97;;;7.10;75.80;;;;;;5077768;28;20037;-87
2023/03/01 12:29:59;;;;;;;6.82;4.97;;;7.20;76.00;;;;;;5064546;28;20063;-86
2023/03/01 12:32:41;;;;;;;6.45;5.10;;;7.20;76.00;;;;;;5047473;28;20483;-88
2023/03/01 12:35:40;;;;;;;5.60;4.35;;;7.20;76.00;;;;;;5055818;28;20033;-87
2023/03/01 12:38:25;;;;;;;5.90;4.50;;;7.30;76.10;;;;;;5051959;28;20029;-87
2023/03/01 12:41:09;;;;;;;6.07;4.70;;;7.40;76.00;;;;;;5062238;28;20029;-88
2023/03/01 12:43:38;;;;;;;6.18;4.85;;;7.40;75.90;;;;;;5033415;28;20067;-89
2023/03/01 12:46:28;;;;;;;6.70;4.95;;;7.50;75.90;;;;;;5032634;28;20120;-89
2023/03/01 12:49:10;;;;;;;6.88;4.82;;;7.50;76.00;;;;;;5042854;28;20040;-87
2023/03/01 12:51:38;;;;;;;5.75;4.68;;;7.60;76.00;;;;;;5053619;28;20075;-88
2023/03/01 12:54:16;;;;;;;5.75;4.82;;;7.60;76.00;;;;;;5047776;28;20044;-87
2023/03/01 12:56:44;;;;;;;6.43;4.93;;;7.70;76.10;;;;;;5059137;28;20533;-87
2023/03/01 12:59:37;;;;;;;5.80;4.72;;;7.70;76.00;;;;;;5046447;28;20017;-88
2023/03/01 13:02:22;;;;;;;6.00;4.63;;;7.80;76.20;;;;;;5055447;28;20445;-88
2023/03/01 13:05:03;;;;;;;6.32;4.43;;;7.90;76.20;;;;;;5048421;28;20420;-88
2023/03/01 13:07:53;;;;;;;5.88;4.80;;;7.90;76.20;;;;;;5061763;28;20120;-87
2023/03/01 13:10:51;;;;;;;6.15;4.38;;;7.90;76.10;;;;;;5038464;28;20328;-87
2023/03/01 13:13:26;;;;;;;6.63;4.60;;;8.00;76.30;;;;;;5071265;28;20033;-85
2023/03/01 13:15:52;;;;;;;5.87;4.47;;;8.00;76.20;;;;;;5060000;28;20032;-86
2023/03/01 13:18:19;;;;;;;5.32;4.38;;;8.10;76.30;;;;;;5074536;28;20047;-87
2023/03/01 13:20:50;;;;;;;5.60;4.40;;;8.10;76.40;;;;;;5041684;28;20021;-85